Time;durP1;ratioP1;P1;durP2;ratioP2;P2;SDS_P1;SDS_P2;PMS_P1;PMS_P2;Temp;Humidity;BMP_temperature;BMP_pressure;BME280_temperature;BME280_humidity;BME280_pressure;Samples;Min_cycle;Max_cycle;Signal;HPM_P1;HPM_P2
2022/02/19 00:00:17;;;;;;;;;0.67;0.67;;;;;;;;5094006;27;45791;-91
2022/02/19 00:02:42;;;;;;;;;2.00;0.00;;;;;;;;5095980;27;45630;-91
2022/02/19 00:05:08;;;;;;;;;0.00;0.00;;;;;;;;5076879;27;45774;-90
2022/02/19 00:07:33;;;;;;;;;1.00;1.00;;;;;;;;5078274;27;45919;-92
2022/02/19 00:09:58;;;;;;;;;2.33;0.67;;;;;;;;5078185;27;45463;-91
2022/02/19 00:12:23;;;;;;;;;2.33;1.00;;;;;;;;5077750;27;50817;-90
2022/02/19 00:14:49;;;;;;;;;0.00;0.00;;;;;;;;5077648;27;45489;-91
2022/02/19 00:17:14;;;;;;;;;1.33;1.00;;;;;;;;5078067;27;45463;-90
2022/02/19 00:19:39;;;;;;;;;1.33;1.33;;;;;;;;5085912;27;45461;-91
2022/02/19 00:22:05;;;;;;;;;1.33;1.33;;;;;;;;5076404;27;47201;-90
2022/02/19 00:24:31;;;;;;;;;2.67;1.33;;;;;;;;5093183;27;45506;-90
2022/02/19 00:26:56;;;;;;;;;1.00;0.00;;;;;;;;5075231;27;45554;-91
2022/02/19 00:29:21;;;;;;;;;0.00;0.00;;;;;;;;5097159;27;45312;-92
2022/02/19 00:31:47;;;;;;;;;0.00;0.00;;;;;;;;5079429;27;48516;-89
2022/02/19 00:34:12;;;;;;;;;0.00;0.00;;;;;;;;5077592;27;45443;-92
2022/02/19 00:36:37;;;;;;;;;1.67;1.00;;;;;;;;5092699;27;45800;-91
2022/02/19 00:39:04;;;;;;;;;2.00;1.00;;;;;;;;5077638;27;45452;-92
2022/02/19 00:41:29;;;;;;;;;1.00;0.33;;;;;;;;5075058;27;48072;-90
2022/02/19 00:43:55;;;;;;;;;1.00;0.00;;;;;;;;5100173;27;45362;-91
2022/02/19 00:46:20;;;;;;;;;4.67;0.00;;;;;;;;5077835;27;45359;-92
2022/02/19 00:48:45;;;;;;;;;1.00;0.67;;;;;;;;5077502;27;45633;-91
2022/02/19 00:51:10;;;;;;;;;0.00;0.00;;;;;;;;5091145;27;46190;-90
2022/02/19 00:53:36;;;;;;;;;1.00;0.00;;;;;;;;5076490;27;45461;-91
2022/02/19 00:56:01;;;;;;;;;1.67;1.00;;;;;;;;5078445;27;45300;-92
2022/02/19 00:58:26;;;;;;;;;1.00;0.67;;;;;;;;5097805;27;45468;-91
2022/02/19 01:00:51;;;;;;;;;1.67;1.00;;;;;;;;5080219;27;48178;-92
2022/02/19 01:03:17;;;;;;;;;0.00;0.00;;;;;;;;5093091;27;45669;-91
2022/02/19 01:05:42;;;;;;;;;2.33;0.33;;;;;;;;5093149;27;45439;-91
2022/02/19 01:08:07;;;;;;;;;1.00;1.00;;;;;;;;5075451;27;45581;-91
2022/02/19 01:10:34;;;;;;;;;2.00;0.67;;;;;;;;5094101;27;45479;-92
2022/02/19 01:12:59;;;;;;;;;5.00;1.00;;;;;;;;5076511;27;45446;-91
2022/02/19 01:15:25;;;;;;;;;0.00;0.00;;;;;;;;5077360;27;45395;-91
2022/02/19 01:17:50;;;;;;;;;2.33;1.00;;;;;;;;5075932;27;45727;-91
2022/02/19 01:20:15;;;;;;;;;2.67;0.00;;;;;;;;5077513;27;49254;-91
2022/02/19 01:22:45;;;;;;;;;1.67;1.00;;;;;;;;5078256;27;45545;-91
2022/02/19 01:25:10;;;;;;;;;1.00;0.00;;;;;;;;5075459;27;45369;-92
2022/02/19 01:27:36;;;;;;;;;3.00;2.00;;;;;;;;5077134;27;45443;-92
2022/02/19 01:30:01;;;;;;;;;2.00;0.00;;;;;;;;5076578;27;48135;-92
2022/02/19 01:32:26;;;;;;;;;0.67;0.00;;;;;;;;5077376;27;45577;-92
2022/02/19 01:34:52;;;;;;;;;0.33;0.33;;;;;;;;5096525;27;45645;-92
2022/02/19 01:37:17;;;;;;;;;2.67;1.67;;;;;;;;5104945;27;45414;-92
2022/02/19 01:39:44;;;;;;;;;0.67;0.67;;;;;;;;5107556;27;47004;-92
2022/02/19 01:42:09;;;;;;;;;6.67;1.00;;;;;;;;5122215;27;45079;-91
2022/02/19 01:44:39;;;;;;;;;1.67;0.33;;;;;;;;5105138;27;44902;-92
2022/02/19 01:47:05;;;;;;;;;1.00;1.00;;;;;;;;5114327;27;45302;-91
2022/02/19 01:49:30;;;;;;;;;2.67;0.67;;;;;;;;5079386;27;48077;-90
2022/02/19 01:51:55;;;;;;;;;1.67;1.00;;;;;;;;5076901;27;45728;-91
2022/02/19 01:54:20;;;;;;;;;1.33;1.33;;;;;;;;5076958;27;45454;-91
2022/02/19 01:56:46;;;;;;;;;5.00;1.00;;;;;;;;5074691;27;45586;-91
2022/02/19 01:59:11;;;;;;;;;3.67;1.00;;;;;;;;5089521;27;47976;-91
2022/02/19 02:01:37;;;;;;;;;0.67;0.67;;;;;;;;5095703;27;45422;-91
2022/02/19 02:04:02;;;;;;;;;2.00;1.00;;;;;;;;5091699;27;45669;-92
2022/02/19 02:06:27;;;;;;;;;1.00;1.00;;;;;;;;5076671;27;45647;-92
2022/02/19 02:08:53;;;;;;;;;2.33;1.00;;;;;;;;5076031;27;48218;-91
2022/02/19 02:11:19;;;;;;;;;1.00;1.00;;;;;;;;5072517;27;45465;-92
2022/02/19 02:13:44;;;;;;;;;0.67;0.00;;;;;;;;5076567;27;45502;-91
2022/02/19 02:16:09;;;;;;;;;2.00;0.33;;;;;;;;5076044;27;51135;-92
2022/02/19 02:18:34;;;;;;;;;0.00;0.00;;;;;;;;5073083;28;47284;-92
2022/02/19 02:20:59;;;;;;;;;0.67;0.67;;;;;;;;5091111;27;45489;-91
2022/02/19 02:23:25;;;;;;;;;0.00;0.00;;;;;;;;5093089;27;45443;-91
2022/02/19 02:25:52;;;;;;;;;1.00;1.00;;;;;;;;5077046;27;45441;-91
2022/02/19 02:28:19;;;;;;;;;1.00;0.33;;;;;;;;5092159;27;45480;-91
2022/02/19 02:30:44;;;;;;;;;2.33;1.00;;;;;;;;5075554;27;45635;-92
2022/02/19 02:33:11;;;;;;;;;0.67;0.67;;;;;;;;5075781;27;45335;-90
2022/02/19 02:35:36;;;;;;;;;0.00;0.00;;;;;;;;5074015;27;45637;-92
2022/02/19 02:38:02;;;;;;;;;2.00;0.00;;;;;;;;5093371;27;46438;-91
2022/02/19 02:40:28;;;;;;;;;1.00;1.00;;;;;;;;5073421;27;46159;-92
2022/02/19 02:42:53;;;;;;;;;2.00;0.00;;;;;;;;5086342;27;45489;-91
2022/02/19 02:45:19;;;;;;;;;0.00;0.00;;;;;;;;5075171;27;45484;-90
2022/02/19 02:47:45;;;;;;;;;1.67;1.33;;;;;;;;5091242;27;46118;-92
2022/02/19 02:50:11;;;;;;;;;0.67;0.00;;;;;;;;5074081;27;45475;-92
2022/02/19 02:52:37;;;;;;;;;0.00;0.00;;;;;;;;5094504;27;45512;-90
2022/02/19 02:55:03;;;;;;;;;5.00;1.00;;;;;;;;5075568;27;45521;-91
2022/02/19 02:57:28;;;;;;;;;1.00;1.00;;;;;;;;5075686;27;48319;-92
2022/02/19 02:59:53;;;;;;;;;0.00;0.00;;;;;;;;5075819;27;45501;-92
2022/02/19 03:02:18;;;;;;;;;1.00;1.00;;;;;;;;5093657;27;45502;-91
2022/02/19 03:04:44;;;;;;;;;1.33;1.33;;;;;;;;5076179;27;45488;-91
2022/02/19 03:07:09;;;;;;;;;1.33;1.00;;;;;;;;5075716;27;46992;-90
2022/02/19 03:09:34;;;;;;;;;1.00;0.00;;;;;;;;5073272;27;45531;-92
2022/02/19 03:11:59;;;;;;;;;0.00;0.00;;;;;;;;5075682;27;45479;-92
2022/02/19 03:14:24;;;;;;;;;1.00;0.00;;;;;;;;5074525;27;46651;-91
2022/02/19 03:16:50;;;;;;;;;0.00;0.00;;;;;;;;5076414;27;48337;-91
2022/02/19 03:19:15;;;;;;;;;0.00;0.00;;;;;;;;5075879;27;45788;-92
2022/02/19 03:21:40;;;;;;;;;1.67;1.00;;;;;;;;5092138;27;45403;-92
2022/02/19 03:24:05;;;;;;;;;0.00;0.00;;;;;;;;5072616;27;45526;-91
2022/02/19 03:26:31;;;;;;;;;0.00;0.00;;;;;;;;5072710;27;47903;-92
2022/02/19 03:28:56;;;;;;;;;5.00;0.67;;;;;;;;5076096;27;45818;-92
2022/02/19 03:31:22;;;;;;;;;0.33;0.33;;;;;;;;5075700;27;45583;-91
2022/02/19 03:33:47;;;;;;;;;5.00;2.00;;;;;;;;5092160;27;45496;-91
2022/02/19 03:36:12;;;;;;;;;0.00;0.00;;;;;;;;5078382;27;47940;-91
2022/02/19 03:38:37;;;;;;;;;1.67;0.67;;;;;;;;5073258;27;46387;-91
2022/02/19 03:41:03;;;;;;;;;3.00;2.00;;;;;;;;5074329;27;45509;-91
2022/02/19 03:43:28;;;;;;;;;1.33;0.67;;;;;;;;5075240;27;45498;-92
2022/02/19 03:45:54;;;;;;;;;1.00;1.00;;;;;;;;5075057;27;46995;-90
2022/02/19 03:48:20;;;;;;;;;1.00;0.00;;;;;;;;5090015;27;45448;-91
2022/02/19 03:50:45;;;;;;;;;0.00;0.00;;;;;;;;5092231;27;45593;-92
2022/02/19 03:53:10;;;;;;;;;1.67;1.00;;;;;;;;5073611;27;45717;-92
2022/02/19 03:55:35;;;;;;;;;2.00;1.00;;;;;;;;5074428;27;46038;-92
2022/02/19 03:58:02;;;;;;;;;1.00;1.00;;;;;;;;5077771;27;45529;-92
2022/02/19 04:00:27;;;;;;;;;0.67;0.67;;;;;;;;5078738;27;45492;-92
2022/02/19 04:02:52;;;;;;;;;2.00;1.00;;;;;;;;5074810;28;45438;-92
2022/02/19 04:05:18;;;;;;;;;0.00;0.00;;;;;;;;5075463;27;47285;-93
2022/02/19 04:07:44;;;;;;;;;2.33;1.00;;;;;;;;5078638;27;45539;-91
2022/02/19 04:10:10;;;;;;;;;0.00;0.00;;;;;;;;5078395;27;45502;-92
2022/02/19 04:12:35;;;;;;;;;1.00;1.00;;;;;;;;5077506;27;45483;-92
2022/02/19 04:15:00;;;;;;;;;0.00;0.00;;;;;;;;5077647;27;46932;-92
2022/02/19 04:17:26;;;;;;;;;0.00;0.00;;;;;;;;5078263;27;45486;-91
2022/02/19 04:19:53;;;;;;;;;0.67;0.67;;;;;;;;5079472;27;45510;-92
2022/02/19 04:22:18;;;;;;;;;1.00;1.00;;;;;;;;5077546;27;45458;-91
2022/02/19 04:24:45;;;;;;;;;0.33;0.33;;;;;;;;5079126;27;47179;-90
2022/02/19 04:27:10;;;;;;;;;2.00;0.00;;;;;;;;5079004;27;45617;-92
2022/02/19 04:29:35;;;;;;;;;0.67;0.00;;;;;;;;5074650;28;45444;-92
2022/02/19 04:32:01;;;;;;;;;0.00;0.00;;;;;;;;5077864;27;45461;-92
2022/02/19 04:34:26;;;;;;;;;2.00;0.00;;;;;;;;5095435;27;46387;-93
2022/02/19 04:36:51;;;;;;;;;0.00;0.00;;;;;;;;5077530;27;45469;-89
2022/02/19 04:39:17;;;;;;;;;1.00;0.67;;;;;;;;5098657;27;45319;-91
2022/02/19 04:41:42;;;;;;;;;2.33;0.00;;;;;;;;5077406;27;45592;-92
2022/02/19 04:44:08;;;;;;;;;3.00;0.00;;;;;;;;5076897;27;47256;-92
2022/02/19 04:46:33;;;;;;;;;0.67;0.67;;;;;;;;5078341;27;45443;-91
2022/02/19 04:48:58;;;;;;;;;1.00;0.67;;;;;;;;5078296;27;45308;-91
2022/02/19 04:51:24;;;;;;;;;5.00;1.00;;;;;;;;5077669;27;45391;-91
2022/02/19 04:53:49;;;;;;;;;2.00;0.00;;;;;;;;5077993;27;48494;-91
2022/02/19 04:56:14;;;;;;;;;2.00;0.00;;;;;;;;5075997;27;45474;-91
2022/02/19 04:58:40;;;;;;;;;1.33;1.33;;;;;;;;5078182;27;45547;-91
2022/02/19 05:01:05;;;;;;;;;1.00;0.00;;;;;;;;5077559;27;45547;-90
2022/02/19 05:03:31;;;;;;;;;0.67;0.67;;;;;;;;5074724;28;48477;-91
2022/02/19 05:05:56;;;;;;;;;1.67;1.67;;;;;;;;5077240;27;45427;-91
2022/02/19 05:08:21;;;;;;;;;1.00;1.00;;;;;;;;5076026;27;45273;-91
2022/02/19 05:10:46;;;;;;;;;3.00;1.67;;;;;;;;5066522;27;45481;-91
2022/02/19 05:13:12;;;;;;;;;0.33;0.33;;;;;;;;5093235;27;46383;-91
2022/02/19 05:15:37;;;;;;;;;0.00;0.00;;;;;;;;5096710;27;45358;-92
2022/02/19 05:18:05;;;;;;;;;1.00;1.00;;;;;;;;5091313;27;45407;-92
2022/02/19 05:20:30;;;;;;;;;1.33;0.00;;;;;;;;5107990;27;45116;-92
2022/02/19 05:22:56;;;;;;;;;1.67;0.67;;;;;;;;5107713;27;46628;-91
2022/02/19 05:25:21;;;;;;;;;2.00;1.00;;;;;;;;5123840;27;44799;-91
2022/02/19 05:27:46;;;;;;;;;2.00;0.67;;;;;;;;5106300;27;45369;-91
2022/02/19 05:30:12;;;;;;;;;1.00;1.00;;;;;;;;5082422;27;45267;-90
2022/02/19 05:32:37;;;;;;;;;1.33;0.00;;;;;;;;5077542;27;47372;-91
2022/02/19 05:35:03;;;;;;;;;0.00;0.00;;;;;;;;5076551;27;45658;-92
2022/02/19 05:37:31;;;;;;;;;0.67;0.00;;;;;;;;5076541;27;45483;-91
2022/02/19 05:39:57;;;;;;;;;1.33;1.00;;;;;;;;5076505;27;45817;-91
2022/02/19 05:42:23;;;;;;;;;1.33;0.00;;;;;;;;5093444;27;45805;-91
2022/02/19 05:44:48;;;;;;;;;1.00;0.00;;;;;;;;5081268;27;45893;-91
2022/02/19 05:47:16;;;;;;;;;0.00;0.00;;;;;;;;5076182;27;45407;-91
2022/02/19 05:49:41;;;;;;;;;1.00;0.00;;;;;;;;5076651;27;45574;-91
2022/02/19 05:52:07;;;;;;;;;2.00;0.00;;;;;;;;5094235;27;45323;-91
2022/02/19 05:54:32;;;;;;;;;0.00;0.00;;;;;;;;5075902;27;45609;-92
2022/02/19 05:56:57;;;;;;;;;2.00;1.00;;;;;;;;5091142;27;45311;-91
2022/02/19 05:59:22;;;;;;;;;0.67;0.67;;;;;;;;5073389;27;45623;-91
2022/02/19 06:01:48;;;;;;;;;0.33;0.00;;;;;;;;5076335;27;48364;-92
2022/02/19 06:04:13;;;;;;;;;0.33;0.33;;;;;;;;5075593;27;45916;-92
2022/02/19 06:06:38;;;;;;;;;2.00;1.00;;;;;;;;5072277;28;45610;-91
2022/02/19 06:09:03;;;;;;;;;2.00;1.00;;;;;;;;5057750;27;45405;-91
2022/02/19 06:11:28;;;;;;;;;2.00;1.00;;;;;;;;5075669;27;48238;-91
2022/02/19 06:13:54;;;;;;;;;2.00;0.00;;;;;;;;5095223;27;45301;-92
2022/02/19 06:16:19;;;;;;;;;2.00;1.00;;;;;;;;5076083;27;45653;-91
2022/02/19 06:18:44;;;;;;;;;0.33;0.33;;;;;;;;5074581;27;45543;-90
2022/02/19 06:21:09;;;;;;;;;1.00;1.00;;;;;;;;5086450;27;46074;-91
2022/02/19 06:23:35;;;;;;;;;1.67;0.00;;;;;;;;5073414;27;45630;-91
2022/02/19 06:26:00;;;;;;;;;0.00;0.00;;;;;;;;5075980;27;45421;-92
2022/02/19 06:28:25;;;;;;;;;1.00;1.00;;;;;;;;5074203;27;45363;-91
2022/02/19 06:30:50;;;;;;;;;3.00;2.00;;;;;;;;5075459;27;48614;-91
2022/02/19 06:33:16;;;;;;;;;2.00;1.00;;;;;;;;5074996;27;45567;-91
2022/02/19 06:35:41;;;;;;;;;2.00;2.00;;;;;;;;5075635;27;45475;-93
2022/02/19 06:38:06;;;;;;;;;3.00;1.67;;;;;;;;5076916;27;45566;-93
2022/02/19 06:40:32;;;;;;;;;0.33;0.00;;;;;;;;5091778;27;45831;-93
2022/02/19 06:42:57;;;;;;;;;2.00;0.00;;;;;;;;5074767;27;46057;-93
2022/02/19 06:45:22;;;;;;;;;0.00;0.00;;;;;;;;5075493;27;45454;-93
2022/02/19 06:47:47;;;;;;;;;2.00;1.00;;;;;;;;5074617;27;45565;-93
2022/02/19 06:50:12;;;;;;;;;5.00;1.33;;;;;;;;5073833;27;47208;-92
2022/02/19 06:52:38;;;;;;;;;2.00;1.00;;;;;;;;5073930;27;45835;-93
2022/02/19 06:55:03;;;;;;;;;0.33;0.33;;;;;;;;5086982;27;45379;-93
2022/02/19 06:57:28;;;;;;;;;2.00;0.00;;;;;;;;5075630;27;45434;-93
2022/02/19 06:59:54;;;;;;;;;0.33;0.33;;;;;;;;5075034;27;46995;-86
2022/02/19 07:02:19;;;;;;;;;1.00;0.00;;;;;;;;5090045;27;45691;-86
2022/02/19 07:04:46;;;;;;;;;1.00;1.00;;;;;;;;5092482;27;45375;-86
2022/02/19 07:07:11;;;;;;;;;1.00;0.33;;;;;;;;5088125;27;45426;-86
2022/02/19 07:09:37;;;;;;;;;3.00;1.00;;;;;;;;5089185;27;45453;-86
2022/02/19 07:12:02;;;;;;;;;1.33;1.00;;;;;;;;5091329;27;45487;-86
2022/02/19 07:14:27;;;;;;;;;1.00;1.00;;;;;;;;5071459;27;45379;-86
2022/02/19 07:16:52;;;;;;;;;1.00;1.00;;;;;;;;5093172;27;45299;-87
2022/02/19 07:19:19;;;;;;;;;1.00;1.00;;;;;;;;5091229;27;45572;-87
2022/02/19 07:21:45;;;;;;;;;0.00;0.00;;;;;;;;5086171;27;45346;-85
2022/02/19 07:24:11;;;;;;;;;5.33;0.00;;;;;;;;5073224;27;45339;-85
2022/02/19 07:26:37;;;;;;;;;3.00;1.00;;;;;;;;5088757;27;45533;-86
2022/02/19 07:29:02;;;;;;;;;4.67;2.67;;;;;;;;5072252;27;48068;-85
2022/02/19 07:31:27;;;;;;;;;2.00;1.67;;;;;;;;5085430;27;45642;-85
2022/02/19 07:33:52;;;;;;;;;1.00;1.00;;;;;;;;5092535;27;45496;-85
2022/02/19 07:36:18;;;;;;;;;5.67;2.00;;;;;;;;5080019;27;45490;-86
2022/02/19 07:38:43;;;;;;;;;1.67;1.00;;;;;;;;5093840;27;45717;-85
2022/02/19 07:41:08;;;;;;;;;0.33;0.33;;;;;;;;5094311;27;45738;-85
2022/02/19 07:43:33;;;;;;;;;0.33;0.33;;;;;;;;5092062;27;45481;-84
2022/02/19 07:45:59;;;;;;;;;1.00;1.00;;;;;;;;5094721;27;47048;-85
2022/02/19 07:48:24;;;;;;;;;1.67;0.33;;;;;;;;5091892;27;45398;-85
2022/02/19 07:59:02;;;;;;;;;1.00;1.00;;;;;;;;5007954;28;45640;-84
2022/02/19 08:01:27;;;;;;;;;1.00;1.00;;;;;;;;5013274;28;45468;-84
2022/02/19 08:03:52;;;;;;;;;2.00;1.00;;;;;;;;5016168;28;45865;-85
2022/02/19 08:06:18;;;;;;;;;0.67;0.67;;;;;;;;5012705;28;45473;-85
2022/02/19 08:08:43;;;;;;;;;0.00;0.00;;;;;;;;4998178;28;46101;-84
2022/02/19 08:11:08;;;;;;;;;2.33;2.00;;;;;;;;5021577;28;45901;-84
2022/02/19 08:13:33;;;;;;;;;1.67;1.67;;;;;;;;5010841;28;45628;-85
2022/02/19 08:15:58;;;;;;;;;1.00;1.00;;;;;;;;5022774;28;45833;-85
2022/02/19 08:18:24;;;;;;;;;1.00;0.00;;;;;;;;5014082;28;45727;-85
2022/02/19 08:20:50;;;;;;;;;2.67;2.00;;;;;;;;5013525;28;45372;-85
2022/02/19 08:23:19;;;;;;;;;0.33;0.33;;;;;;;;5035210;28;45340;-85
2022/02/19 08:25:45;;;;;;;;;1.33;0.00;;;;;;;;5024238;28;45473;-84
2022/02/19 08:28:11;;;;;;;;;1.33;1.33;;;;;;;;5032776;28;46271;-83
2022/02/19 08:30:37;;;;;;;;;2.00;1.00;;;;;;;;5047677;27;45282;-84
2022/02/19 08:33:03;;;;;;;;;1.00;1.00;;;;;;;;5088223;27;45568;-84
2022/02/19 08:35:28;;;;;;;;;4.00;1.00;;;;;;;;5097358;27;45579;-85
2022/02/19 08:37:54;;;;;;;;;2.33;2.00;;;;;;;;5095213;27;46383;-84
2022/02/19 08:40:19;;;;;;;;;3.33;2.33;;;;;;;;5093635;27;45479;-83
2022/02/19 08:42:44;;;;;;;;;2.33;1.00;;;;;;;;5088940;27;45447;-84
2022/02/19 08:45:10;;;;;;;;;0.33;0.33;;;;;;;;5091089;27;45536;-84
2022/02/19 08:47:36;;;;;;;;;4.33;2.33;;;;;;;;5098546;27;46022;-83
2022/02/19 08:50:03;;;;;;;;;2.33;1.67;;;;;;;;5087124;27;45436;-82
2022/02/19 08:52:29;;;;;;;;;1.33;0.00;;;;;;;;5064315;27;45430;-87
2022/02/19 08:54:54;;;;;;;;;0.67;0.67;;;;;;;;5099415;27;45550;-87
2022/02/19 08:57:19;;;;;;;;;1.67;1.00;;;;;;;;5107592;27;45429;-83
2022/02/19 08:59:45;;;;;;;;;1.00;1.00;;;;;;;;5109284;27;45403;-84
2022/02/19 09:02:10;;;;;;;;;1.67;0.00;;;;;;;;5087733;27;44846;-85
2022/02/19 09:04:35;;;;;;;;;3.00;2.00;;;;;;;;5089353;27;45343;-85
2022/02/19 09:07:00;;;;;;;;;2.33;2.00;;;;;;;;5071424;27;47543;-85
2022/02/19 09:09:25;;;;;;;;;2.00;1.00;;;;;;;;5068877;27;45539;-87
2022/02/19 09:11:51;;;;;;;;;3.00;1.00;;;;;;;;5095195;27;45434;-84
2022/02/19 09:14:16;;;;;;;;;4.67;2.33;;;;;;;;5092080;27;52835;-86
2022/02/19 09:16:42;;;;;;;;;8.33;3.00;;;;;;;;5099965;27;46102;-85
2022/02/19 09:19:07;;;;;;;;;4.00;1.00;;;;;;;;5083880;27;45707;-86
2022/02/19 09:21:33;;;;;;;;;5.67;2.33;;;;;;;;5096599;27;45593;-87
2022/02/19 09:23:58;;;;;;;;;9.67;8.00;;;;;;;;5080259;27;45489;-83
2022/02/19 09:26:23;;;;;;;;;3.00;2.33;;;;;;;;5092538;27;45454;-82
2022/02/19 09:28:49;;;;;;;;;5.33;5.33;;;;;;;;5103370;27;45648;-80
2022/02/19 09:31:15;;;;;;;;;6.00;6.00;;;;;;;;5092085;27;45434;-83
2022/02/19 09:33:40;;;;;;;;;7.67;2.00;;;;;;;;5076067;27;45376;-82
2022/02/19 09:36:06;;;;;;;;;6.00;6.00;;;;;;;;5085257;27;45993;-83
2022/02/19 09:38:31;;;;;;;;;1.67;1.67;;;;;;;;5086035;27;45419;-83
2022/02/19 09:41:01;;;;;;;;;6.00;2.33;;;;;;;;5085044;27;45473;-82
2022/02/19 09:43:26;;;;;;;;;8.00;2.33;;;;;;;;5065413;27;45564;-81
2022/02/19 09:45:52;;;;;;;;;1.67;1.67;;;;;;;;5090541;27;45657;-83
2022/02/19 09:48:17;;;;;;;;;3.00;2.00;;;;;;;;5089370;27;45744;-83
2022/02/19 09:50:46;;;;;;;;;3.00;2.00;;;;;;;;5097741;27;45593;-83
2022/02/19 09:53:12;;;;;;;;;2.33;2.33;;;;;;;;5078733;27;45455;-83
2022/02/19 09:55:37;;;;;;;;;2.00;2.00;;;;;;;;5098541;27;46091;-84
2022/02/19 09:58:03;;;;;;;;;1.00;1.00;;;;;;;;5089769;27;45579;-84
2022/02/19 10:00:35;;;;;;;;;2.67;1.33;;;;;;;;5087126;27;45502;-83
2022/02/19 10:03:01;;;;;;;;;1.67;0.00;;;;;;;;5090134;27;45439;-84
2022/02/19 10:05:29;;;;;;;;;2.67;0.67;;;;;;;;5088987;27;46806;-83
2022/02/19 10:08:02;;;;;;;;;3.00;2.00;;;;;;;;5070884;27;45594;-83
2022/02/19 10:10:27;;;;;;;;;2.00;1.00;;;;;;;;5072655;27;45562;-84
2022/02/19 10:12:52;;;;;;;;;1.00;1.00;;;;;;;;5067212;28;45327;-84
2022/02/19 10:15:18;;;;;;;;;1.00;1.00;;;;;;;;5064885;27;47044;-84
2022/02/19 10:17:43;;;;;;;;;2.33;2.33;;;;;;;;5093480;27;45837;-87
2022/02/19 10:20:09;;;;;;;;;2.00;1.00;;;;;;;;5072847;27;45384;-84
2022/02/19 10:22:40;;;;;;;;;1.67;1.67;;;;;;;;5071420;27;45434;-85
2022/02/19 10:25:07;;;;;;;;;1.00;1.00;;;;;;;;5073027;27;46452;-84
2022/02/19 10:27:40;;;;;;;;;1.00;1.00;;;;;;;;5065708;27;45568;-84
2022/02/19 10:30:06;;;;;;;;;2.67;0.00;;;;;;;;5088571;27;45553;-85
2022/02/19 10:32:45;;;;;;;;;2.00;1.00;;;;;;;;5089240;27;52645;-85
2022/02/19 10:35:10;;;;;;;;;2.67;2.00;;;;;;;;5090628;27;47563;-84
2022/02/19 10:37:43;;;;;;;;;1.67;1.00;;;;;;;;5066239;28;45508;-85
2022/02/19 10:40:24;;;;;;;;;1.33;0.33;;;;;;;;5076416;27;45524;-85
2022/02/19 10:42:53;;;;;;;;;1.00;1.00;;;;;;;;5069063;27;45486;-85
2022/02/19 10:45:18;;;;;;;;;2.33;0.00;;;;;;;;5071456;27;47663;-86
2022/02/19 10:47:43;;;;;;;;;2.00;1.00;;;;;;;;5090801;27;45327;-85
2022/02/19 10:50:09;;;;;;;;;1.67;1.67;;;;;;;;5091521;27;45446;-86
2022/02/19 10:52:34;;;;;;;;;2.00;1.00;;;;;;;;5093147;27;45496;-84
2022/02/19 10:55:07;;;;;;;;;3.00;0.67;;;;;;;;5077320;27;48359;-85
2022/02/19 10:57:37;;;;;;;;;2.00;1.00;;;;;;;;5074944;27;45554;-84
2022/02/19 11:00:09;;;;;;;;;1.33;1.00;;;;;;;;5083963;27;45513;-85
2022/02/19 11:02:36;;;;;;;;;1.67;1.00;;;;;;;;5065270;27;45582;-85
2022/02/19 11:05:01;;;;;;;;;2.67;1.00;;;;;;;;5065685;27;47343;-84
2022/02/19 11:07:26;;;;;;;;;1.00;0.00;;;;;;;;5085208;27;45520;-85
2022/02/19 11:09:52;;;;;;;;;1.00;0.00;;;;;;;;5076205;27;45595;-87
2022/02/19 11:12:18;;;;;;;;;3.00;1.00;;;;;;;;5095319;27;45495;-86
2022/02/19 11:14:44;;;;;;;;;3.00;1.67;;;;;;;;5077656;27;46536;-84
2022/02/19 11:17:12;;;;;;;;;3.67;0.33;;;;;;;;5076207;27;45663;-85
2022/02/19 11:19:37;;;;;;;;;4.67;1.00;;;;;;;;5075820;27;45623;-86
2022/02/19 11:22:03;;;;;;;;;2.33;1.00;;;;;;;;5094878;27;45672;-86
2022/02/19 11:24:29;;;;;;;;;1.00;1.00;;;;;;;;5092283;27;45305;-84
2022/02/19 11:26:58;;;;;;;;;2.67;2.00;;;;;;;;5075109;27;45457;-84
2022/02/19 11:29:24;;;;;;;;;2.00;2.00;;;;;;;;5097178;27;45745;-83
2022/02/19 11:31:51;;;;;;;;;0.33;0.33;;;;;;;;5091572;27;45509;-85
2022/02/19 11:34:19;;;;;;;;;2.00;1.00;;;;;;;;5075312;27;47584;-84
2022/02/19 11:36:44;;;;;;;;;1.33;0.33;;;;;;;;5091131;27;45417;-84
2022/02/19 11:39:09;;;;;;;;;3.00;2.00;;;;;;;;5094437;27;45222;-84
2022/02/19 11:41:36;;;;;;;;;1.00;1.00;;;;;;;;5074913;27;45517;-86
2022/02/19 11:44:01;;;;;;;;;2.00;0.67;;;;;;;;5092673;27;48133;-87
2022/02/19 11:46:27;;;;;;;;;1.67;0.33;;;;;;;;5088527;27;45812;-86
2022/02/19 11:48:52;;;;;;;;;1.33;1.33;;;;;;;;5079167;27;45494;-85
2022/02/19 11:51:18;;;;;;;;;0.00;0.00;;;;;;;;5078232;27;45855;-85
2022/02/19 11:53:44;;;;;;;;;1.00;1.00;;;;;;;;5108654;27;45639;-84
2022/02/19 11:56:11;;;;;;;;;0.00;0.00;;;;;;;;5092969;27;45572;-85
2022/02/19 11:58:53;;;;;;;;;1.00;1.00;;;;;;;;5075002;27;45497;-85
2022/02/19 12:01:18;;;;;;;;;1.67;0.00;;;;;;;;5087255;27;45707;-86
2022/02/19 12:03:43;;;;;;;;;1.67;1.00;;;;;;;;5104407;27;45441;-85
2022/02/19 12:06:16;;;;;;;;;1.67;1.00;;;;;;;;5103507;27;45769;-84
2022/02/19 12:08:56;;;;;;;;;1.00;1.00;;;;;;;;5090252;27;45636;-86
2022/02/19 12:11:23;;;;;;;;;2.67;1.00;;;;;;;;5090859;27;45616;-86
2022/02/19 12:13:49;;;;;;;;;0.00;0.00;;;;;;;;5076485;27;47069;-86
2022/02/19 12:16:39;;;;;;;;;2.33;0.33;;;;;;;;5082917;27;45854;-85
2022/02/19 12:19:11;;;;;;;;;0.00;0.00;;;;;;;;5069901;27;45493;-86
2022/02/19 12:21:40;;;;;;;;;0.00;0.00;;;;;;;;5080317;27;45886;-86
2022/02/19 12:24:08;;;;;;;;;1.00;0.00;;;;;;;;5102819;27;46438;-86
2022/02/19 12:26:53;;;;;;;;;0.00;0.00;;;;;;;;5104912;27;45483;-85
2022/02/19 12:29:19;;;;;;;;;0.00;0.00;;;;;;;;5089937;27;45341;-85
2022/02/19 12:31:58;;;;;;;;;0.00;0.00;;;;;;;;5109469;27;45492;-85
2022/02/19 12:34:24;;;;;;;;;0.00;0.00;;;;;;;;5105528;27;46483;-86
2022/02/19 12:36:56;;;;;;;;;3.00;1.00;;;;;;;;5102908;27;45426;-84
2022/02/19 12:39:25;;;;;;;;;1.67;1.67;;;;;;;;5090894;27;45468;-86
2022/02/19 12:41:54;;;;;;;;;1.33;0.00;;;;;;;;5095486;27;45323;-84
2022/02/19 12:44:20;;;;;;;;;1.00;0.00;;;;;;;;5111531;27;45386;-85
2022/02/19 12:46:47;;;;;;;;;2.00;0.00;;;;;;;;5095678;27;45521;-85
2022/02/19 12:49:13;;;;;;;;;4.00;3.00;;;;;;;;5085700;27;45462;-84
2022/02/19 12:51:38;;;;;;;;;2.00;1.00;;;;;;;;5102535;27;45624;-85
2022/02/19 12:54:06;;;;;;;;;2.00;0.33;;;;;;;;5108203;27;45707;-87
2022/02/19 12:56:41;;;;;;;;;2.33;1.00;;;;;;;;5094828;27;45608;-87
2022/02/19 12:59:07;;;;;;;;;2.00;1.00;;;;;;;;5094528;27;45407;-89
2022/02/19 13:01:32;;;;;;;;;2.00;1.00;;;;;;;;5106782;27;45772;-88
2022/02/19 13:03:57;;;;;;;;;1.33;0.33;;;;;;;;5087339;27;45515;-87
2022/02/19 13:06:28;;;;;;;;;0.00;0.00;;;;;;;;5091742;27;45577;-89
2022/02/19 13:08:59;;;;;;;;;0.00;0.00;;;;;;;;5089928;27;45695;-87
2022/02/19 13:11:27;;;;;;;;;4.00;1.00;;;;;;;;5107650;27;45503;-87
2022/02/19 13:13:52;;;;;;;;;1.00;1.00;;;;;;;;5105357;27;46426;-89
2022/02/19 13:16:20;;;;;;;;;1.00;1.00;;;;;;;;5089802;27;45640;-88
2022/02/19 13:18:46;;;;;;;;;0.67;0.00;;;;;;;;5075461;27;45529;-91
2022/02/19 13:21:15;;;;;;;;;3.67;1.00;;;;;;;;5074475;27;45656;-90
2022/02/19 13:23:40;;;;;;;;;0.33;0.33;;;;;;;;5088948;27;45562;-85
2022/02/19 13:26:06;;;;;;;;;0.00;0.00;;;;;;;;5089727;27;45810;-84
2022/02/19 13:28:31;;;;;;;;;1.00;1.00;;;;;;;;5075141;27;45431;-86
2022/02/19 13:31:06;;;;;;;;;0.00;0.00;;;;;;;;5067582;27;45766;-85
2022/02/19 13:33:36;;;;;;;;;0.33;0.33;;;;;;;;5074132;27;47544;-83
2022/02/19 13:36:02;;;;;;;;;0.00;0.00;;;;;;;;5091252;27;45484;-82
2022/02/19 13:38:27;;;;;;;;;0.33;0.33;;;;;;;;5091953;27;45426;-81
2022/02/19 13:40:58;;;;;;;;;1.00;1.00;;;;;;;;5072431;27;45383;-84
2022/02/19 13:43:23;;;;;;;;;0.00;0.00;;;;;;;;5088714;27;46501;-81
2022/02/19 13:45:49;;;;;;;;;0.33;0.00;;;;;;;;5068301;27;45660;-82
2022/02/19 13:48:22;;;;;;;;;4.00;1.00;;;;;;;;5068064;27;45620;-82
2022/02/19 13:50:49;;;;;;;;;1.00;1.00;;;;;;;;5066870;27;45371;-82
2022/02/19 13:53:15;;;;;;;;;1.00;1.00;;;;;;;;5088868;27;45578;-82
2022/02/19 13:55:51;;;;;;;;;1.33;0.00;;;;;;;;5092240;27;45469;-82
2022/02/19 13:58:37;;;;;;;;;2.00;0.33;;;;;;;;5087146;27;45505;-83
2022/02/19 14:01:08;;;;;;;;;0.33;0.33;;;;;;;;5054522;27;45605;-83
2022/02/19 14:03:47;;;;;;;;;1.33;1.00;;;;;;;;5069085;27;47153;-83
2022/02/19 14:06:32;;;;;;;;;0.33;0.00;;;;;;;;5084704;27;45676;-84
2022/02/19 14:09:13;;;;;;;;;3.00;1.00;;;;;;;;5067816;27;45375;-84
2022/02/19 14:11:39;;;;;;;;;4.00;0.33;;;;;;;;5084958;27;45557;-83
2022/02/19 14:14:04;;;;;;;;;1.00;1.00;;;;;;;;5066175;27;47016;-84
2022/02/19 14:16:29;;;;;;;;;5.67;1.67;;;;;;;;5068615;28;45455;-84
2022/02/19 14:19:02;;;;;;;;;2.33;1.00;;;;;;;;5080224;27;45562;-85
2022/02/19 14:21:27;;;;;;;;;3.00;2.00;;;;;;;;5062338;27;45365;-83
2022/02/19 14:24:08;;;;;;;;;2.00;2.00;;;;;;;;5071810;27;48096;-83
2022/02/19 14:26:33;;;;;;;;;2.00;1.00;;;;;;;;5080945;27;45367;-84
2022/02/19 14:28:59;;;;;;;;;0.67;0.67;;;;;;;;5073359;27;45341;-84
2022/02/19 14:31:24;;;;;;;;;1.00;1.00;;;;;;;;5089523;27;45382;-84
2022/02/19 14:33:49;;;;;;;;;0.00;0.00;;;;;;;;5069988;27;48340;-84
2022/02/19 14:36:19;;;;;;;;;2.00;1.00;;;;;;;;5066609;27;45683;-83
2022/02/19 14:38:44;;;;;;;;;2.00;0.00;;;;;;;;5087044;27;45426;-84
2022/02/19 14:41:09;;;;;;;;;1.67;1.67;;;;;;;;5081522;27;45383;-82
2022/02/19 14:43:36;;;;;;;;;0.00;0.00;;;;;;;;5066301;27;48405;-83
2022/02/19 14:46:03;;;;;;;;;0.33;0.33;;;;;;;;5086552;27;45444;-83